createdAt,value
2022-09-28T00:45:59.830Z,62.16
2022-09-28T00:48:28.055Z,62.10
2022-09-28T00:50:55.922Z,62.08
2022-09-28T00:53:24.792Z,62.25
2022-09-28T00:55:53.410Z,62.53
2022-09-28T00:58:22.808Z,62.46
2022-09-28T01:47:40.296Z,62.71
2022-09-28T01:50:11.176Z,62.80
2022-09-28T01:52:42.873Z,62.71
2022-09-28T01:55:10.906Z,62.90
2022-09-28T01:57:39.563Z,62.87
2022-09-28T02:00:08.707Z,62.79
2022-09-28T02:47:05.616Z,62.84
2022-09-28T02:49:39.273Z,62.90
2022-09-28T02:52:11.824Z,63.04
2022-09-28T02:54:47.617Z,62.97
2022-09-28T02:57:19.634Z,63.00
2022-09-28T02:59:48.657Z,62.74
2022-09-28T03:46:09.835Z,62.80
2022-09-28T03:48:43.018Z,62.84
2022-09-28T03:51:12.089Z,62.91
2022-09-28T03:53:39.803Z,63.11
2022-09-28T03:56:08.331Z,62.97
2022-09-28T03:58:36.037Z,63.07
2022-09-28T04:30:25.119Z,62.98
2022-09-28T04:32:53.674Z,63.08
2022-09-28T04:35:21.267Z,62.94
2022-09-28T04:37:48.967Z,62.78
2022-09-28T04:40:16.973Z,62.86
2022-09-28T04:42:44.992Z,62.82
2022-09-28T04:45:13.473Z,62.87
2022-09-28T04:47:46.295Z,62.74
2022-09-28T04:50:24.198Z,62.81
2022-09-28T04:53:07.798Z,62.80
2022-09-28T04:55:35.400Z,62.78
2022-09-28T04:58:04.723Z,62.81
2022-09-28T05:00:35.339Z,63.01
2022-09-28T05:03:20.599Z,63.02
2022-09-28T05:06:14.959Z,63.00
2022-09-28T05:08:46.842Z,62.99
2022-09-28T05:11:14.901Z,62.99
2022-09-28T05:13:43.083Z,63.00
2022-09-28T05:16:10.993Z,62.93
2022-09-28T05:19:00.155Z,63.18
2022-09-28T05:21:29.302Z,63.00
2022-09-28T05:23:58.711Z,62.98
2022-09-28T05:26:27.726Z,63.01
2022-09-28T05:28:55.239Z,62.96
2022-09-28T05:31:43.125Z,63.16
2022-09-28T05:34:33.871Z,63.12
2022-09-28T05:37:01.477Z,63.09
2022-09-28T05:39:30.906Z,63.05
2022-09-28T05:41:59.242Z,62.99
2022-09-28T05:44:26.908Z,62.97
2022-09-28T05:46:55.294Z,63.06
2022-09-28T05:49:23.711Z,62.99
2022-09-28T05:51:52.583Z,63.10
2022-09-28T05:54:21.195Z,62.93
2022-09-28T05:56:48.735Z,62.87
2022-09-28T05:59:17.057Z,62.53
2022-09-28T06:01:44.595Z,62.69
2022-09-28T06:04:14.726Z,62.52
2022-09-28T06:06:43.289Z,62.61
2022-09-28T06:09:12.466Z,62.46
2022-09-28T06:11:59.630Z,62.31
2022-09-28T06:14:38.873Z,62.18
2022-09-28T06:17:06.414Z,61.87
2022-09-28T06:19:34.031Z,62.11
2022-09-28T06:22:20.185Z,61.76
2022-09-28T06:24:59.488Z,61.94
2022-09-28T06:27:27.450Z,61.79
2022-09-28T06:29:54.949Z,61.94
2022-09-28T06:32:22.432Z,61.66
2022-09-28T06:34:56.081Z,61.07
2022-09-28T06:37:27.605Z,61.83
2022-09-28T06:39:55.992Z,59.12
2022-09-28T06:42:24.992Z,61.81
2022-09-28T06:45:21.823Z,61.33
2022-09-28T06:48:07.935Z,61.17
2022-09-28T06:50:40.495Z,61.23
2022-09-28T06:53:28.634Z,60.88
2022-09-28T06:56:00.143Z,61.02
2022-09-28T06:58:30.271Z,60.84
2022-09-28T07:01:00.532Z,61.00
2022-09-28T07:03:31.156Z,60.70
2022-09-28T07:06:18.384Z,60.86
2022-09-28T07:09:25.989Z,60.68
2022-09-28T07:12:10.711Z,60.72
2022-09-28T07:15:09.809Z,60.57
2022-09-28T07:17:49.270Z,60.59
2022-09-28T07:20:22.287Z,60.76
2022-09-28T07:22:53.547Z,60.73
2022-09-28T07:25:25.528Z,60.55
2022-09-28T07:28:17.215Z,60.51
2022-09-28T07:30:46.656Z,60.74
2022-09-28T07:33:33.248Z,60.62
2022-09-28T07:36:22.917Z,60.62
2022-09-28T07:38:51.657Z,60.74
2022-09-28T07:41:22.735Z,60.51
2022-09-28T07:43:52.057Z,60.70
2022-09-28T07:46:21.757Z,60.45
2022-09-28T07:48:56.651Z,60.63
2022-09-28T07:51:54.531Z,60.49
2022-09-28T07:54:45.872Z,60.63
2022-09-28T07:57:33.306Z,60.50
2022-09-28T08:00:21.763Z,60.43
2022-09-28T08:02:51.259Z,60.45
2022-09-28T08:05:23.682Z,60.37
2022-09-28T08:07:51.200Z,60.40
2022-09-28T08:10:19.428Z,60.56
2022-09-28T08:13:07.525Z,60.53
2022-09-28T08:15:51.839Z,60.49
2022-09-28T08:18:28.327Z,60.35
2022-09-28T08:21:13.247Z,60.24
2022-09-28T08:23:40.717Z,60.44
2022-09-28T08:26:12.093Z,60.45
2022-09-28T08:28:43.133Z,60.39
2022-09-28T08:31:31.258Z,60.38
2022-09-28T08:34:23.983Z,60.28
2022-09-28T08:37:20.534Z,60.33
2022-09-28T08:40:13.213Z,60.31
2022-09-28T08:42:54.690Z,60.37
2022-09-28T08:45:42.172Z,60.41
2022-09-28T08:48:56.258Z,60.35
2022-09-28T08:52:02.448Z,60.16
2022-09-28T08:54:56.975Z,60.22
2022-09-28T08:57:41.954Z,60.34
2022-09-28T09:00:11.875Z,60.34
2022-09-28T09:02:40.520Z,60.23
2022-09-28T09:05:15.406Z,60.31
2022-09-28T09:08:04.671Z,60.17
2022-09-28T09:10:37.745Z,60.15
2022-09-28T09:13:07.243Z,60.10
2022-09-28T09:15:38.881Z,60.13
2022-09-28T09:18:22.400Z,60.12
2022-09-28T09:21:10.916Z,59.96
2022-09-28T09:23:44.339Z,59.88
2022-09-28T09:26:16.772Z,59.85
2022-09-28T09:28:57.894Z,59.84
2022-09-28T09:31:38.170Z,59.79
2022-09-28T09:34:19.654Z,60.03
2022-09-28T09:36:59.748Z,59.97
2022-09-28T09:40:19.138Z,59.94
2022-09-28T09:43:07.232Z,59.76
2022-09-28T09:45:54.871Z,59.68
2022-09-28T09:48:35.884Z,59.66
2022-09-28T09:51:04.209Z,59.71
2022-09-28T09:53:37.609Z,59.79
2022-09-28T09:56:10.256Z,59.76
2022-09-28T09:58:52.034Z,59.63
2022-09-28T10:01:34.146Z,59.69
2022-09-28T10:04:20.422Z,59.48
2022-09-28T10:06:49.328Z,59.71
2022-09-28T10:09:19.092Z,59.52
2022-09-28T10:11:50.216Z,59.53
2022-09-28T10:14:20.065Z,59.46
2022-09-28T10:16:53.778Z,59.47
2022-09-28T10:19:43.884Z,59.54
2022-09-28T10:22:30.231Z,59.56
2022-09-28T10:25:00.008Z,59.47
2022-09-28T10:27:30.873Z,59.51
2022-09-28T10:29:58.972Z,59.47
2022-09-28T10:32:27.763Z,59.40
2022-09-28T10:35:12.153Z,59.37
2022-09-28T10:37:47.559Z,59.32
2022-09-28T10:40:38.699Z,59.51
2022-09-28T10:43:09.018Z,59.30
2022-09-28T10:45:37.290Z,59.45
2022-09-28T10:48:06.102Z,59.27
2022-09-28T10:50:34.433Z,59.21
2022-09-28T10:53:12.721Z,59.34
2022-09-28T10:56:04.939Z,59.34
2022-09-28T10:58:36.938Z,59.49
2022-09-28T11:01:08.191Z,59.47
2022-09-28T11:03:35.812Z,59.23
2022-09-28T11:06:07.000Z,59.23
2022-09-28T11:08:37.113Z,59.40
2022-09-28T11:11:06.356Z,59.28
2022-09-28T11:13:40.179Z,59.33
2022-09-28T11:16:09.254Z,59.46
2022-09-28T11:18:38.588Z,59.21
2022-09-28T11:21:11.098Z,59.23
2022-09-28T11:23:42.119Z,59.23
2022-09-28T11:26:19.134Z,59.40
2022-09-28T11:28:49.230Z,59.36
2022-09-28T11:31:26.247Z,59.31
2022-09-28T11:34:06.276Z,59.23
2022-09-28T11:37:00.962Z,59.11
2022-09-28T11:39:30.305Z,59.12
2022-09-28T11:42:07.139Z,59.17
2022-09-28T11:44:44.611Z,59.25
2022-09-28T11:47:33.469Z,59.12
2022-09-28T11:50:02.325Z,59.12
2022-09-28T11:52:33.436Z,59.10
2022-09-28T11:55:02.334Z,59.08
2022-09-28T11:57:30.594Z,59.30
2022-09-28T11:59:59.833Z,59.28
2022-09-28T12:02:28.575Z,59.27
2022-09-28T12:05:06.179Z,59.25
2022-09-28T12:07:34.151Z,59.23
2022-09-28T12:10:05.182Z,59.24
2022-09-28T12:12:35.120Z,59.19
2022-09-28T12:15:14.103Z,59.20
2022-09-28T12:17:41.895Z,59.21
2022-09-28T12:20:11.767Z,59.22
2022-09-28T12:22:40.568Z,59.06
2022-09-28T12:25:11.052Z,59.17
2022-09-28T12:27:41.170Z,59.22
2022-09-28T12:30:14.439Z,59.17
2022-09-28T12:32:42.834Z,59.21
2022-09-28T12:35:13.675Z,59.08
2022-09-28T12:37:45.931Z,59.10
2022-09-28T12:40:37.386Z,59.21
2022-09-28T12:43:11.282Z,58.99
2022-09-28T12:46:10.444Z,59.09
2022-09-28T12:48:43.027Z,59.12
2022-09-28T12:51:12.857Z,58.94
2022-09-28T12:53:45.380Z,58.94
2022-09-28T12:56:16.759Z,58.91
2022-09-28T12:58:59.830Z,59.09
2022-09-28T13:01:40.810Z,58.94
2022-09-28T13:04:20.182Z,59.04
2022-09-28T13:06:48.634Z,59.08
2022-09-28T13:09:17.252Z,59.08
2022-09-28T13:11:46.983Z,59.15
2022-09-28T13:14:21.516Z,59.08
2022-09-28T13:16:51.397Z,59.00
2022-09-28T13:19:21.155Z,58.93
2022-09-28T13:21:51.070Z,58.95
2022-09-28T13:24:32.061Z,58.91
2022-09-28T13:27:02.923Z,59.06
2022-09-28T13:29:30.409Z,59.05
2022-09-28T13:31:59.310Z,59.00
2022-09-28T13:34:27.332Z,59.04
2022-09-28T13:37:13.266Z,58.84
2022-09-28T13:39:52.841Z,58.94
2022-09-28T13:42:34.174Z,58.85
2022-09-28T13:45:09.507Z,58.98
2022-09-28T13:47:45.886Z,58.93
2022-09-28T13:50:16.841Z,59.01
2022-09-28T13:52:45.504Z,59.00
2022-09-28T13:55:23.279Z,58.86
2022-09-28T13:57:52.141Z,59.03
2022-09-28T14:00:22.061Z,59.04
2022-09-28T14:02:53.325Z,58.89
2022-09-28T14:05:34.273Z,59.05
2022-09-28T14:08:12.815Z,58.94
2022-09-28T14:10:47.127Z,58.91
2022-09-28T14:13:14.645Z,58.96
2022-09-28T14:15:43.797Z,59.03
2022-09-28T14:18:14.986Z,58.91
2022-09-28T14:20:43.072Z,58.84
2022-09-28T14:23:21.307Z,58.97
2022-09-28T14:26:00.013Z,59.19
2022-09-28T14:28:31.221Z,59.21
2022-09-28T14:30:59.552Z,59.14
2022-09-28T14:33:28.839Z,59.10
2022-09-28T14:35:57.328Z,59.00
2022-09-28T14:38:43.199Z,59.00
2022-09-28T14:41:12.770Z,59.04
2022-09-28T14:43:59.355Z,59.13
2022-09-28T14:46:28.574Z,59.30
2022-09-28T14:48:58.191Z,59.10
2022-09-28T14:51:45.037Z,59.37
2022-09-28T14:54:17.103Z,59.58
2022-09-28T14:56:45.337Z,59.39
2022-09-28T14:59:13.174Z,59.15
2022-09-28T15:01:40.737Z,59.26
2022-09-28T15:04:10.732Z,59.01
2022-09-28T15:06:45.263Z,59.12
2022-09-28T15:09:27.072Z,59.10
2022-09-28T15:11:55.923Z,59.18
2022-09-28T15:14:25.256Z,59.12
2022-09-28T15:16:55.312Z,59.16
2022-09-28T15:19:29.159Z,59.18
2022-09-28T15:21:57.091Z,58.94
2022-09-28T15:24:25.879Z,58.95
2022-09-28T15:26:54.536Z,59.20
2022-09-28T15:29:23.565Z,59.22
2022-09-28T15:31:54.504Z,59.15
2022-09-28T15:34:48.392Z,59.12
2022-09-28T15:37:16.155Z,59.24
2022-09-28T15:39:44.511Z,59.05
2022-09-28T15:42:12.008Z,59.25
2022-09-28T15:44:39.455Z,59.35
2022-09-28T15:47:11.698Z,58.99
2022-09-28T15:49:42.224Z,59.17
2022-09-28T15:52:22.232Z,59.23
2022-09-28T15:54:50.641Z,59.20
2022-09-28T15:57:32.838Z,59.25
2022-09-28T16:00:00.784Z,59.54
2022-09-28T16:02:28.423Z,59.69
2022-09-28T16:04:58.930Z,59.45
2022-09-28T16:07:28.775Z,59.33
2022-09-28T16:10:03.459Z,59.16
2022-09-28T16:12:42.534Z,59.31
2022-09-28T16:15:14.269Z,59.24
2022-09-28T16:17:41.854Z,59.19
2022-09-28T16:20:21.857Z,59.23
2022-09-28T16:22:49.423Z,59.10
2022-09-28T16:25:17.639Z,59.09
2022-09-28T16:27:45.751Z,59.12
2022-09-28T16:30:21.768Z,59.19
2022-09-28T16:32:50.566Z,59.45
2022-09-28T16:35:21.171Z,59.33
2022-09-28T16:37:49.073Z,59.33
2022-09-28T16:40:17.045Z,59.40
2022-09-28T16:42:48.880Z,59.46
2022-09-28T16:45:18.652Z,59.50
2022-09-28T16:47:47.374Z,59.71
2022-09-28T16:50:15.260Z,59.82
2022-09-28T16:53:01.766Z,59.97
2022-09-28T16:55:39.908Z,59.89
2022-09-28T16:58:08.890Z,59.90
2022-09-28T17:00:38.141Z,60.07
2022-09-28T17:03:11.506Z,59.88
2022-09-28T17:05:42.793Z,60.04
2022-09-28T17:08:12.755Z,60.05
2022-09-28T17:11:09.339Z,60.03
2022-09-28T17:14:20.884Z,59.98
2022-09-28T17:28:31.565Z,59.84
2022-09-28T17:31:05.027Z,59.80
2022-09-28T17:33:32.585Z,59.85
2022-09-28T17:36:00.637Z,60.08
2022-09-28T17:38:28.319Z,60.04
2022-09-28T17:40:56.227Z,59.97
2022-09-28T17:43:23.896Z,59.92
2022-09-28T17:45:52.885Z,59.92
2022-09-28T17:48:21.938Z,59.87
2022-09-28T17:50:49.427Z,59.88
2022-09-28T17:53:17.004Z,60.02
2022-09-28T17:55:44.466Z,59.88
2022-09-28T17:58:18.483Z,59.98
2022-09-28T18:00:46.348Z,59.92
2022-09-28T18:03:16.323Z,60.08
2022-09-28T18:05:44.168Z,60.11
2022-09-28T18:08:13.078Z,60.12
2022-09-28T18:10:40.661Z,60.18
2022-09-28T18:13:08.272Z,59.89
2022-09-28T18:15:35.901Z,59.93
2022-09-28T18:18:03.465Z,60.02
2022-09-28T18:20:32.390Z,59.99
2022-09-28T18:23:00.025Z,59.98
2022-09-28T18:25:27.804Z,60.05
2022-09-28T18:27:57.406Z,60.12
2022-09-28T18:30:25.388Z,60.15
2022-09-28T18:32:52.905Z,60.19
2022-09-28T18:35:22.991Z,60.07
2022-09-28T18:37:52.440Z,60.03
2022-09-28T18:40:20.472Z,60.15
2022-09-28T18:42:48.703Z,60.03
2022-09-28T18:45:17.247Z,60.10
2022-09-28T18:47:45.194Z,60.28
2022-09-28T18:50:13.017Z,60.11
2022-09-28T18:52:40.629Z,60.24
2022-09-28T18:55:09.625Z,60.28
2022-09-28T18:57:38.993Z,60.15
2022-09-28T19:00:07.197Z,60.04
2022-09-28T19:02:35.268Z,60.07
2022-09-28T19:05:03.004Z,60.15
2022-09-28T19:07:31.658Z,60.27
2022-09-28T19:09:59.187Z,60.14
2022-09-28T19:12:28.231Z,60.14
2022-09-28T19:14:56.016Z,60.01
2022-09-28T19:17:23.738Z,60.06
2022-09-28T19:19:52.017Z,60.10
2022-09-28T19:22:19.560Z,60.07
2022-09-28T19:24:47.060Z,60.19
2022-09-28T19:27:14.646Z,60.17
2022-09-28T19:29:43.581Z,60.02
2022-09-28T19:32:12.198Z,60.30
2022-09-28T19:34:39.753Z,60.04
2022-09-28T19:37:07.238Z,60.06
2022-09-28T19:39:34.769Z,60.15
2022-09-28T19:42:02.330Z,60.02
2022-09-28T19:44:29.930Z,60.14
2022-09-28T19:46:59.049Z,60.07
2022-09-28T19:49:26.987Z,59.96
2022-09-28T19:52:14.384Z,60.17
2022-09-28T19:54:43.911Z,59.96
2022-09-28T19:57:11.716Z,60.05
2022-09-28T19:59:39.396Z,60.08
2022-09-28T20:02:08.404Z,60.15
2022-09-28T20:04:36.489Z,59.97
2022-09-28T20:07:05.286Z,60.18
2022-09-28T20:09:33.738Z,60.44
2022-09-28T20:12:03.762Z,60.41
2022-09-28T20:14:38.215Z,60.46
2022-09-28T20:17:20.197Z,60.32
2022-09-28T20:19:51.987Z,60.30
2022-09-28T20:22:21.445Z,60.40
2022-09-28T20:24:50.149Z,60.34
2022-09-28T20:27:26.445Z,60.45
2022-09-28T20:29:55.738Z,60.50
2022-09-28T20:32:25.978Z,60.42
2022-09-28T20:34:54.892Z,60.54
2022-09-28T20:37:25.267Z,60.75
2022-09-28T20:39:56.051Z,60.67
2022-09-28T20:42:23.583Z,60.67
2022-09-28T20:44:52.160Z,60.93
2022-09-28T20:47:20.242Z,60.78
2022-09-28T20:49:49.485Z,60.68
2022-09-28T20:52:18.390Z,60.79
2022-09-28T20:54:46.262Z,60.82
2022-09-28T20:57:20.419Z,60.68
2022-09-28T20:59:53.626Z,60.68
2022-09-28T21:02:22.358Z,60.51
2022-09-28T21:04:51.465Z,60.53
2022-09-28T21:07:18.968Z,60.72
2022-09-28T21:09:46.430Z,60.93
2022-09-28T21:12:15.345Z,60.78
2022-09-28T21:14:42.923Z,60.63
2022-09-28T21:17:10.520Z,60.41
2022-09-28T21:19:38.054Z,60.24
2022-09-28T21:22:07.667Z,60.32
2022-09-28T21:24:35.184Z,60.36
2022-09-28T21:27:02.916Z,60.25
2022-09-28T21:29:30.392Z,60.45
2022-09-28T21:31:57.997Z,60.67
2022-09-28T21:34:25.532Z,60.72
2022-09-28T21:36:53.247Z,60.80
2022-09-28T21:39:22.582Z,60.76
2022-09-28T21:41:50.251Z,61.05
2022-09-28T21:44:17.981Z,60.77
2022-09-28T21:46:45.717Z,60.81
2022-09-28T21:49:14.327Z,60.50
2022-09-28T21:51:41.971Z,60.48
2022-09-28T21:54:09.619Z,60.78
2022-09-28T21:56:38.654Z,60.81
2022-09-28T21:59:06.460Z,60.71
2022-09-28T22:01:34.111Z,60.89
2022-09-28T22:04:08.908Z,60.87
2022-09-28T22:06:36.525Z,60.97
2022-09-28T22:09:05.576Z,60.98
2022-09-28T22:11:33.379Z,60.92
2022-09-28T22:14:02.376Z,60.87
2022-09-28T22:16:30.629Z,60.97
2022-09-28T22:19:04.361Z,61.14
2022-09-28T22:21:36.635Z,61.24
2022-09-28T22:24:04.596Z,61.36
2022-09-28T22:26:34.005Z,61.19
2022-09-28T22:29:03.854Z,61.26
2022-09-28T22:31:35.189Z,61.18
2022-09-28T22:34:05.849Z,61.61
2022-09-28T22:36:33.718Z,62.05
2022-09-28T22:39:01.915Z,62.28
2022-09-28T22:41:30.553Z,62.33
2022-09-28T22:44:20.819Z,62.67
2022-09-28T22:47:58.899Z,62.81
2022-09-28T22:50:28.595Z,62.68
2022-09-28T23:45:36.131Z,62.72
2022-09-28T23:48:03.664Z,62.71
2022-09-28T23:50:31.264Z,62.72
2022-09-28T23:52:58.782Z,62.96
2022-09-28T23:55:26.285Z,62.89
2022-09-28T23:57:55.633Z,63.05
